sensor_id;sensor_type;location;lat;lon;timestamp;P1;durP1;ratioP1;P2;durP2;ratioP2
10469;SDS011;5282;47.052;15.458;2022-10-23T00:01:30;14.17;;;11.43;;
10469;SDS011;5282;47.052;15.458;2022-10-23T00:03:59;36.70;;;11.93;;
10469;SDS011;5282;47.052;15.458;2022-10-23T00:06:28;25.60;;;11.43;;
10469;SDS011;5282;47.052;15.458;2022-10-23T00:08:56;23.17;;;11.30;;
10469;SDS011;5282;47.052;15.458;2022-10-23T00:11:24;36.63;;;11.67;;
10469;SDS011;5282;47.052;15.458;2022-10-23T00:13:54;77.27;;;12.27;;
10469;SDS011;5282;47.052;15.458;2022-10-23T00:16:24;94.10;;;12.20;;
10469;SDS011;5282;47.052;15.458;2022-10-23T00:18:52;140.50;;;12.93;;
10469;SDS011;5282;47.052;15.458;2022-10-23T00:21:19;39.60;;;10.43;;
10469;SDS011;5282;47.052;15.458;2022-10-23T00:23:46;93.87;;;11.63;;
10469;SDS011;5282;47.052;15.458;2022-10-23T00:26:14;96.87;;;12.00;;
10469;SDS011;5282;47.052;15.458;2022-10-23T00:28:41;40.97;;;9.77;;
10469;SDS011;5282;47.052;15.458;2022-10-23T00:31:08;280.43;;;15.93;;
10469;SDS011;5282;47.052;15.458;2022-10-23T00:33:38;79.37;;;11.47;;
10469;SDS011;5282;47.052;15.458;2022-10-23T00:36:05;196.57;;;14.00;;
10469;SDS011;5282;47.052;15.458;2022-10-23T00:38:34;160.07;;;13.37;;
10469;SDS011;5282;47.052;15.458;2022-10-23T00:41:01;146.43;;;12.60;;
10469;SDS011;5282;47.052;15.458;2022-10-23T00:43:29;63.40;;;10.60;;
10469;SDS011;5282;47.052;15.458;2022-10-23T00:45:57;107.47;;;10.97;;
10469;SDS011;5282;47.052;15.458;2022-10-23T00:48:24;28.23;;;9.40;;
10469;SDS011;5282;47.052;15.458;2022-10-23T00:50:54;120.63;;;11.97;;
10469;SDS011;5282;47.052;15.458;2022-10-23T00:53:22;58.87;;;9.60;;
10469;SDS011;5282;47.052;15.458;2022-10-23T00:55:49;56.30;;;9.73;;
10469;SDS011;5282;47.052;15.458;2022-10-23T00:58:20;63.37;;;10.00;;
10469;SDS011;5282;47.052;15.458;2022-10-23T01:00:47;28.83;;;8.60;;
10469;SDS011;5282;47.052;15.458;2022-10-23T01:03:19;27.87;;;9.33;;
10469;SDS011;5282;47.052;15.458;2022-10-23T01:05:51;26.10;;;8.73;;
10469;SDS011;5282;47.052;15.458;2022-10-23T01:08:31;12.20;;;8.07;;
10469;SDS011;5282;47.052;15.458;2022-10-23T01:11:05;29.60;;;7.97;;
10469;SDS011;5282;47.052;15.458;2022-10-23T01:13:38;23.23;;;8.67;;
10469;SDS011;5282;47.052;15.458;2022-10-23T01:16:10;32.27;;;8.67;;
10469;SDS011;5282;47.052;15.458;2022-10-23T01:18:43;21.90;;;8.40;;
10469;SDS011;5282;47.052;15.458;2022-10-23T01:21:17;16.70;;;8.47;;
10469;SDS011;5282;47.052;15.458;2022-10-23T01:24:09;15.13;;;8.13;;
10469;SDS011;5282;47.052;15.458;2022-10-23T01:26:49;20.17;;;8.30;;
10469;SDS011;5282;47.052;15.458;2022-10-23T01:29:28;34.20;;;8.70;;
10469;SDS011;5282;47.052;15.458;2022-10-23T01:32:03;20.47;;;8.37;;
10469;SDS011;5282;47.052;15.458;2022-10-23T01:34:36;37.13;;;8.90;;
10469;SDS011;5282;47.052;15.458;2022-10-23T01:37:10;25.13;;;9.23;;
10469;SDS011;5282;47.052;15.458;2022-10-23T01:39:39;23.80;;;9.10;;
10469;SDS011;5282;47.052;15.458;2022-10-23T01:42:15;17.33;;;9.03;;
10469;SDS011;5282;47.052;15.458;2022-10-23T01:44:48;33.47;;;9.10;;
10469;SDS011;5282;47.052;15.458;2022-10-23T01:47:19;32.67;;;9.63;;
10469;SDS011;5282;47.052;15.458;2022-10-23T01:49:51;28.40;;;9.03;;
10469;SDS011;5282;47.052;15.458;2022-10-23T01:52:19;47.93;;;9.67;;
10469;SDS011;5282;47.052;15.458;2022-10-23T01:54:47;28.00;;;9.30;;
10469;SDS011;5282;47.052;15.458;2022-10-23T01:57:17;26.67;;;8.67;;
10469;SDS011;5282;47.052;15.458;2022-10-23T01:59:50;52.43;;;9.97;;
10469;SDS011;5282;47.052;15.458;2022-10-23T02:02:20;45.40;;;9.60;;
10469;SDS011;5282;47.052;15.458;2022-10-23T02:04:52;73.97;;;9.93;;
10469;SDS011;5282;47.052;15.458;2022-10-23T02:07:22;18.13;;;9.00;;
10469;SDS011;5282;47.052;15.458;2022-10-23T02:09:50;34.50;;;8.70;;
10469;SDS011;5282;47.052;15.458;2022-10-23T02:12:17;58.63;;;9.17;;
10469;SDS011;5282;47.052;15.458;2022-10-23T02:14:56;26.93;;;8.17;;
10469;SDS011;5282;47.052;15.458;2022-10-23T02:17:29;33.50;;;8.23;;
10469;SDS011;5282;47.052;15.458;2022-10-23T02:20:08;51.53;;;8.67;;
10469;SDS011;5282;47.052;15.458;2022-10-23T02:22:45;86.47;;;9.57;;
10469;SDS011;5282;47.052;15.458;2022-10-23T02:25:19;71.17;;;8.97;;
10469;SDS011;5282;47.052;15.458;2022-10-23T02:27:53;33.63;;;8.00;;
10469;SDS011;5282;47.052;15.458;2022-10-23T02:30:26;76.70;;;9.40;;
10469;SDS011;5282;47.052;15.458;2022-10-23T02:32:55;87.53;;;9.57;;
10469;SDS011;5282;47.052;15.458;2022-10-23T02:35:23;36.07;;;7.80;;
10469;SDS011;5282;47.052;15.458;2022-10-23T02:37:51;72.90;;;8.97;;
10469;SDS011;5282;47.052;15.458;2022-10-23T02:40:18;84.70;;;9.03;;
10469;SDS011;5282;47.052;15.458;2022-10-23T02:42:48;32.37;;;7.60;;
10469;SDS011;5282;47.052;15.458;2022-10-23T02:45:22;42.50;;;7.93;;
10469;SDS011;5282;47.052;15.458;2022-10-23T02:47:57;87.23;;;10.03;;
10469;SDS011;5282;47.052;15.458;2022-10-23T02:50:31;81.20;;;9.53;;
10469;SDS011;5282;47.052;15.458;2022-10-23T02:53:04;60.90;;;8.70;;
10469;SDS011;5282;47.052;15.458;2022-10-23T02:55:38;99.17;;;9.77;;
10469;SDS011;5282;47.052;15.458;2022-10-23T02:58:14;86.67;;;8.87;;
10469;SDS011;5282;47.052;15.458;2022-10-23T03:00:47;126.10;;;9.73;;
10469;SDS011;5282;47.052;15.458;2022-10-23T03:03:20;133.23;;;9.27;;
10469;SDS011;5282;47.052;15.458;2022-10-23T03:05:51;81.00;;;8.10;;
10469;SDS011;5282;47.052;15.458;2022-10-23T03:08:18;56.13;;;7.47;;
10469;SDS011;5282;47.052;15.458;2022-10-23T03:10:45;58.73;;;8.17;;
10469;SDS011;5282;47.052;15.458;2022-10-23T03:13:12;67.53;;;7.70;;
10469;SDS011;5282;47.052;15.458;2022-10-23T03:15:39;63.37;;;7.87;;
10469;SDS011;5282;47.052;15.458;2022-10-23T03:18:05;57.63;;;7.10;;
10469;SDS011;5282;47.052;15.458;2022-10-23T03:20:34;67.97;;;7.87;;
10469;SDS011;5282;47.052;15.458;2022-10-23T03:23:01;74.97;;;7.33;;
10469;SDS011;5282;47.052;15.458;2022-10-23T03:25:28;52.70;;;7.27;;
10469;SDS011;5282;47.052;15.458;2022-10-23T03:27:54;27.80;;;6.53;;
10469;SDS011;5282;47.052;15.458;2022-10-23T03:30:21;97.27;;;7.80;;
10469;SDS011;5282;47.052;15.458;2022-10-23T03:32:48;13.63;;;6.30;;
10469;SDS011;5282;47.052;15.458;2022-10-23T03:35:15;17.60;;;6.17;;
10469;SDS011;5282;47.052;15.458;2022-10-23T03:37:43;70.80;;;7.40;;
10469;SDS011;5282;47.052;15.458;2022-10-23T03:40:10;58.70;;;6.90;;
10469;SDS011;5282;47.052;15.458;2022-10-23T03:42:37;73.53;;;7.43;;
10469;SDS011;5282;47.052;15.458;2022-10-23T03:45:04;21.47;;;6.63;;
10469;SDS011;5282;47.052;15.458;2022-10-23T03:47:31;37.07;;;6.87;;
10469;SDS011;5282;47.052;15.458;2022-10-23T03:50:05;68.80;;;7.60;;
10469;SDS011;5282;47.052;15.458;2022-10-23T03:52:32;69.17;;;7.80;;
10469;SDS011;5282;47.052;15.458;2022-10-23T03:55:00;46.73;;;7.13;;
10469;SDS011;5282;47.052;15.458;2022-10-23T03:57:28;84.07;;;7.73;;
10469;SDS011;5282;47.052;15.458;2022-10-23T03:59:54;80.27;;;6.90;;
10469;SDS011;5282;47.052;15.458;2022-10-23T04:02:21;125.37;;;8.17;;
10469;SDS011;5282;47.052;15.458;2022-10-23T04:04:48;123.80;;;8.07;;
10469;SDS011;5282;47.052;15.458;2022-10-23T04:07:15;62.27;;;6.80;;
10469;SDS011;5282;47.052;15.458;2022-10-23T04:09:42;77.00;;;6.97;;
10469;SDS011;5282;47.052;15.458;2022-10-23T04:12:10;62.07;;;6.17;;
10469;SDS011;5282;47.052;15.458;2022-10-23T04:14:37;50.63;;;6.30;;
10469;SDS011;5282;47.052;15.458;2022-10-23T04:17:04;36.50;;;4.93;;
10469;SDS011;5282;47.052;15.458;2022-10-23T04:19:31;26.77;;;5.20;;
10469;SDS011;5282;47.052;15.458;2022-10-23T04:22:00;53.17;;;5.60;;
10469;SDS011;5282;47.052;15.458;2022-10-23T04:24:27;23.63;;;4.37;;
10469;SDS011;5282;47.052;15.458;2022-10-23T04:26:55;34.80;;;5.00;;
10469;SDS011;5282;47.052;15.458;2022-10-23T04:29:23;6.10;;;4.37;;
10469;SDS011;5282;47.052;15.458;2022-10-23T04:31:51;28.40;;;7.20;;
10469;SDS011;5282;47.052;15.458;2022-10-23T04:34:17;8.83;;;6.10;;
10469;SDS011;5282;47.052;15.458;2022-10-23T04:36:44;10.60;;;6.13;;
10469;SDS011;5282;47.052;15.458;2022-10-23T04:39:11;21.43;;;5.60;;
10469;SDS011;5282;47.052;15.458;2022-10-23T04:41:39;5.63;;;5.03;;
10469;SDS011;5282;47.052;15.458;2022-10-23T04:44:06;16.13;;;6.17;;
10469;SDS011;5282;47.052;15.458;2022-10-23T04:46:35;74.87;;;6.40;;
10469;SDS011;5282;47.052;15.458;2022-10-23T04:49:01;36.70;;;5.53;;
10469;SDS011;5282;47.052;15.458;2022-10-23T04:51:28;7.20;;;4.97;;
10469;SDS011;5282;47.052;15.458;2022-10-23T04:53:55;39.87;;;5.67;;
10469;SDS011;5282;47.052;15.458;2022-10-23T04:56:22;62.87;;;5.80;;
10469;SDS011;5282;47.052;15.458;2022-10-23T04:58:49;58.73;;;5.77;;
10469;SDS011;5282;47.052;15.458;2022-10-23T05:01:16;11.90;;;4.70;;
10469;SDS011;5282;47.052;15.458;2022-10-23T05:03:44;39.67;;;5.73;;
10469;SDS011;5282;47.052;15.458;2022-10-23T05:06:12;47.00;;;5.90;;
10469;SDS011;5282;47.052;15.458;2022-10-23T05:08:40;25.77;;;5.70;;
10469;SDS011;5282;47.052;15.458;2022-10-23T05:11:07;12.47;;;4.97;;
10469;SDS011;5282;47.052;15.458;2022-10-23T05:13:34;21.87;;;5.77;;
10469;SDS011;5282;47.052;15.458;2022-10-23T05:16:04;63.67;;;6.23;;
10469;SDS011;5282;47.052;15.458;2022-10-23T05:18:31;49.17;;;6.00;;
10469;SDS011;5282;47.052;15.458;2022-10-23T05:21:03;17.10;;;5.17;;
10469;SDS011;5282;47.052;15.458;2022-10-23T05:23:33;15.70;;;5.00;;
10469;SDS011;5282;47.052;15.458;2022-10-23T05:26:02;20.50;;;5.53;;
10469;SDS011;5282;47.052;15.458;2022-10-23T05:28:30;20.93;;;5.30;;
10469;SDS011;5282;47.052;15.458;2022-10-23T05:30:57;38.10;;;4.93;;
10469;SDS011;5282;47.052;15.458;2022-10-23T05:33:29;18.13;;;4.33;;
10469;SDS011;5282;47.052;15.458;2022-10-23T05:35:57;46.60;;;5.33;;
10469;SDS011;5282;47.052;15.458;2022-10-23T05:38:26;46.70;;;5.30;;
10469;SDS011;5282;47.052;15.458;2022-10-23T05:40:57;37.53;;;5.57;;
10469;SDS011;5282;47.052;15.458;2022-10-23T05:43:24;24.73;;;4.80;;
10469;SDS011;5282;47.052;15.458;2022-10-23T05:45:53;16.00;;;4.30;;
10469;SDS011;5282;47.052;15.458;2022-10-23T05:48:20;67.90;;;5.90;;
10469;SDS011;5282;47.052;15.458;2022-10-23T05:50:47;34.37;;;5.87;;
10469;SDS011;5282;47.052;15.458;2022-10-23T05:53:16;55.90;;;6.27;;
10469;SDS011;5282;47.052;15.458;2022-10-23T05:55:44;49.17;;;5.53;;
10469;SDS011;5282;47.052;15.458;2022-10-23T05:58:11;47.20;;;5.57;;
10469;SDS011;5282;47.052;15.458;2022-10-23T06:00:38;35.40;;;4.90;;
10469;SDS011;5282;47.052;15.458;2022-10-23T06:03:05;15.63;;;4.80;;
10469;SDS011;5282;47.052;15.458;2022-10-23T06:05:33;15.00;;;4.90;;
10469;SDS011;5282;47.052;15.458;2022-10-23T06:08:00;69.97;;;6.97;;
10469;SDS011;5282;47.052;15.458;2022-10-23T06:10:27;70.80;;;6.47;;
10469;SDS011;5282;47.052;15.458;2022-10-23T06:12:55;48.87;;;5.80;;
10469;SDS011;5282;47.052;15.458;2022-10-23T06:15:22;44.93;;;5.83;;
10469;SDS011;5282;47.052;15.458;2022-10-23T06:17:49;34.40;;;5.40;;
10469;SDS011;5282;47.052;15.458;2022-10-23T06:20:16;23.87;;;5.20;;
10469;SDS011;5282;47.052;15.458;2022-10-23T06:22:42;53.00;;;5.93;;
10469;SDS011;5282;47.052;15.458;2022-10-23T06:25:09;22.23;;;5.33;;
10469;SDS011;5282;47.052;15.458;2022-10-23T06:27:36;25.67;;;5.80;;
10469;SDS011;5282;47.052;15.458;2022-10-23T06:30:05;20.53;;;5.73;;
10469;SDS011;5282;47.052;15.458;2022-10-23T06:32:33;38.93;;;5.93;;
10469;SDS011;5282;47.052;15.458;2022-10-23T06:35:00;47.23;;;6.27;;
10469;SDS011;5282;47.052;15.458;2022-10-23T06:37:27;58.57;;;6.23;;
10469;SDS011;5282;47.052;15.458;2022-10-23T06:39:54;31.70;;;5.97;;
10469;SDS011;5282;47.052;15.458;2022-10-23T06:42:21;27.07;;;5.33;;
10469;SDS011;5282;47.052;15.458;2022-10-23T06:44:48;9.73;;;4.90;;
10469;SDS011;5282;47.052;15.458;2022-10-23T06:47:18;36.37;;;5.50;;
10469;SDS011;5282;47.052;15.458;2022-10-23T06:49:45;48.37;;;6.00;;
10469;SDS011;5282;47.052;15.458;2022-10-23T06:52:12;10.77;;;5.10;;
10469;SDS011;5282;47.052;15.458;2022-10-23T06:54:39;43.10;;;5.70;;
10469;SDS011;5282;47.052;15.458;2022-10-23T06:57:06;11.90;;;4.97;;
10469;SDS011;5282;47.052;15.458;2022-10-23T06:59:33;20.73;;;6.07;;
10469;SDS011;5282;47.052;15.458;2022-10-23T07:01:59;8.30;;;5.50;;
10469;SDS011;5282;47.052;15.458;2022-10-23T07:04:28;25.17;;;6.87;;
10469;SDS011;5282;47.052;15.458;2022-10-23T07:06:55;24.10;;;6.60;;
10469;SDS011;5282;47.052;15.458;2022-10-23T07:09:22;10.30;;;5.73;;
10469;SDS011;5282;47.052;15.458;2022-10-23T07:11:49;6.77;;;5.70;;
10469;SDS011;5282;47.052;15.458;2022-10-23T07:14:16;10.53;;;5.90;;
10469;SDS011;5282;47.052;15.458;2022-10-23T07:16:43;15.87;;;6.30;;
10469;SDS011;5282;47.052;15.458;2022-10-23T07:19:10;16.93;;;5.67;;
10469;SDS011;5282;47.052;15.458;2022-10-23T07:21:38;16.93;;;6.80;;
10469;SDS011;5282;47.052;15.458;2022-10-23T07:24:05;35.07;;;6.43;;
10469;SDS011;5282;47.052;15.458;2022-10-23T07:26:33;38.90;;;6.57;;
10469;SDS011;5282;47.052;15.458;2022-10-23T07:28:59;73.63;;;8.00;;
10469;SDS011;5282;47.052;15.458;2022-10-23T07:31:26;32.73;;;7.30;;
10469;SDS011;5282;47.052;15.458;2022-10-23T07:33:54;71.80;;;8.87;;
10469;SDS011;5282;47.052;15.458;2022-10-23T07:36:21;22.57;;;7.07;;
10469;SDS011;5282;47.052;15.458;2022-10-23T07:38:50;19.13;;;7.57;;
10469;SDS011;5282;47.052;15.458;2022-10-23T07:41:17;26.23;;;8.50;;
10469;SDS011;5282;47.052;15.458;2022-10-23T07:43:44;51.43;;;8.60;;
10469;SDS011;5282;47.052;15.458;2022-10-23T07:46:11;91.57;;;10.10;;
10469;SDS011;5282;47.052;15.458;2022-10-23T07:48:38;21.03;;;7.97;;
10469;SDS011;5282;47.052;15.458;2022-10-23T07:51:06;10.87;;;7.83;;
10469;SDS011;5282;47.052;15.458;2022-10-23T07:53:35;11.80;;;8.60;;
10469;SDS011;5282;47.052;15.458;2022-10-23T07:56:09;11.80;;;8.27;;
10469;SDS011;5282;47.052;15.458;2022-10-23T07:58:38;8.27;;;7.57;;
10469;SDS011;5282;47.052;15.458;2022-10-23T08:01:10;8.57;;;8.07;;
10469;SDS011;5282;47.052;15.458;2022-10-23T08:03:41;8.43;;;7.83;;
10469;SDS011;5282;47.052;15.458;2022-10-23T08:06:08;8.83;;;8.33;;
10469;SDS011;5282;47.052;15.458;2022-10-23T08:08:35;9.23;;;8.67;;
10469;SDS011;5282;47.052;15.458;2022-10-23T08:11:04;8.87;;;8.37;;
10469;SDS011;5282;47.052;15.458;2022-10-23T08:13:31;12.63;;;11.20;;
10469;SDS011;5282;47.052;15.458;2022-10-23T08:15:58;10.37;;;9.70;;
10469;SDS011;5282;47.052;15.458;2022-10-23T08:18:26;10.40;;;9.60;;
10469;SDS011;5282;47.052;15.458;2022-10-23T08:20:58;9.33;;;8.73;;
10469;SDS011;5282;47.052;15.458;2022-10-23T08:23:26;9.77;;;9.07;;
10469;SDS011;5282;47.052;15.458;2022-10-23T08:25:55;8.73;;;8.23;;
10469;SDS011;5282;47.052;15.458;2022-10-23T08:28:24;9.23;;;8.73;;
10469;SDS011;5282;47.052;15.458;2022-10-23T08:30:51;8.50;;;8.03;;
10469;SDS011;5282;47.052;15.458;2022-10-23T08:33:18;9.93;;;9.33;;
10469;SDS011;5282;47.052;15.458;2022-10-23T08:35:45;9.43;;;8.73;;
10469;SDS011;5282;47.052;15.458;2022-10-23T08:38:12;9.20;;;8.70;;
10469;SDS011;5282;47.052;15.458;2022-10-23T08:40:42;12.10;;;10.77;;
10469;SDS011;5282;47.052;15.458;2022-10-23T08:43:12;11.40;;;10.60;;
10469;SDS011;5282;47.052;15.458;2022-10-23T08:45:45;11.30;;;10.40;;
10469;SDS011;5282;47.052;15.458;2022-10-23T08:48:17;11.53;;;10.73;;
10469;SDS011;5282;47.052;15.458;2022-10-23T08:50:49;11.13;;;10.43;;
10469;SDS011;5282;47.052;15.458;2022-10-23T08:53:23;12.03;;;11.13;;
10469;SDS011;5282;47.052;15.458;2022-10-23T08:55:55;11.90;;;11.00;;
10469;SDS011;5282;47.052;15.458;2022-10-23T08:58:30;12.70;;;11.70;;
10469;SDS011;5282;47.052;15.458;2022-10-23T09:01:04;12.07;;;11.27;;
10469;SDS011;5282;47.052;15.458;2022-10-23T09:03:49;12.93;;;11.93;;
10469;SDS011;5282;47.052;15.458;2022-10-23T09:06:20;12.67;;;11.67;;
10469;SDS011;5282;47.052;15.458;2022-10-23T09:08:57;11.27;;;10.57;;
10469;SDS011;5282;47.052;15.458;2022-10-23T09:11:31;10.93;;;10.13;;
10469;SDS011;5282;47.052;15.458;2022-10-23T09:17:11;11.73;;;11.03;;
10469;SDS011;5282;47.052;15.458;2022-10-23T09:19:46;10.73;;;9.90;;
10469;SDS011;5282;47.052;15.458;2022-10-23T09:22:16;10.60;;;9.97;;
10469;SDS011;5282;47.052;15.458;2022-10-23T09:24:43;10.00;;;9.47;;
10469;SDS011;5282;47.052;15.458;2022-10-23T09:27:10;10.10;;;9.50;;
10469;SDS011;5282;47.052;15.458;2022-10-23T09:29:46;9.30;;;8.80;;
10469;SDS011;5282;47.052;15.458;2022-10-23T09:32:14;8.50;;;7.80;;
10469;SDS011;5282;47.052;15.458;2022-10-23T09:34:49;9.03;;;8.53;;
10469;SDS011;5282;47.052;15.458;2022-10-23T09:37:20;9.10;;;8.60;;
10469;SDS011;5282;47.052;15.458;2022-10-23T09:39:58;8.40;;;7.93;;
10469;SDS011;5282;47.052;15.458;2022-10-23T09:42:27;7.87;;;7.47;;
10469;SDS011;5282;47.052;15.458;2022-10-23T09:44:54;8.07;;;7.57;;
10469;SDS011;5282;47.052;15.458;2022-10-23T09:47:23;8.10;;;7.60;;
10469;SDS011;5282;47.052;15.458;2022-10-23T09:49:53;8.07;;;7.67;;
10469;SDS011;5282;47.052;15.458;2022-10-23T09:52:22;8.03;;;7.50;;
10469;SDS011;5282;47.052;15.458;2022-10-23T09:54:54;8.50;;;7.83;;
10469;SDS011;5282;47.052;15.458;2022-10-23T09:57:26;7.33;;;6.93;;
10469;SDS011;5282;47.052;15.458;2022-10-23T09:59:56;7.70;;;7.30;;
10469;SDS011;5282;47.052;15.458;2022-10-23T10:02:28;8.10;;;7.50;;
10469;SDS011;5282;47.052;15.458;2022-10-23T10:04:56;7.47;;;6.93;;
10469;SDS011;5282;47.052;15.458;2022-10-23T10:07:24;7.10;;;6.70;;
10469;SDS011;5282;47.052;15.458;2022-10-23T10:09:51;7.57;;;7.17;;
10469;SDS011;5282;47.052;15.458;2022-10-23T10:12:23;6.43;;;6.03;;
10469;SDS011;5282;47.052;15.458;2022-10-23T10:15:04;7.10;;;6.80;;
10469;SDS011;5282;47.052;15.458;2022-10-23T10:17:46;7.40;;;7.10;;
10469;SDS011;5282;47.052;15.458;2022-10-23T10:20:41;5.53;;;5.33;;
10469;SDS011;5282;47.052;15.458;2022-10-23T10:23:26;6.23;;;5.83;;
10469;SDS011;5282;47.052;15.458;2022-10-23T10:26:00;6.00;;;5.80;;
10469;SDS011;5282;47.052;15.458;2022-10-23T10:28:52;6.27;;;5.90;;
10469;SDS011;5282;47.052;15.458;2022-10-23T10:31:29;6.83;;;6.30;;
10469;SDS011;5282;47.052;15.458;2022-10-23T10:34:10;5.67;;;5.33;;
10469;SDS011;5282;47.052;15.458;2022-10-23T10:36:45;6.43;;;5.93;;
10469;SDS011;5282;47.052;15.458;2022-10-23T10:42:15;5.90;;;5.47;;
10469;SDS011;5282;47.052;15.458;2022-10-23T10:45:07;5.57;;;5.37;;
10469;SDS011;5282;47.052;15.458;2022-10-23T10:47:44;4.93;;;4.63;;
10469;SDS011;5282;47.052;15.458;2022-10-23T10:50:25;4.83;;;4.57;;
10469;SDS011;5282;47.052;15.458;2022-10-23T10:52:57;4.43;;;4.23;;
10469;SDS011;5282;47.052;15.458;2022-10-23T10:55:34;3.97;;;3.73;;
10469;SDS011;5282;47.052;15.458;2022-10-23T10:58:04;4.17;;;3.90;;
10469;SDS011;5282;47.052;15.458;2022-10-23T11:00:40;3.73;;;3.63;;
10469;SDS011;5282;47.052;15.458;2022-10-23T11:03:10;4.10;;;3.90;;
10469;SDS011;5282;47.052;15.458;2022-10-23T11:05:50;4.20;;;4.00;;
10469;SDS011;5282;47.052;15.458;2022-10-23T11:08:19;4.13;;;3.93;;
10469;SDS011;5282;47.052;15.458;2022-10-23T11:10:56;4.20;;;4.00;;
10469;SDS011;5282;47.052;15.458;2022-10-23T11:13:27;4.17;;;4.07;;
10469;SDS011;5282;47.052;15.458;2022-10-23T11:16:00;3.90;;;3.80;;
10469;SDS011;5282;47.052;15.458;2022-10-23T11:18:30;3.70;;;3.60;;
10469;SDS011;5282;47.052;15.458;2022-10-23T11:21:02;4.30;;;3.87;;
10469;SDS011;5282;47.052;15.458;2022-10-23T11:23:39;3.77;;;3.50;;
10469;SDS011;5282;47.052;15.458;2022-10-23T11:26:32;3.53;;;3.43;;
10469;SDS011;5282;47.052;15.458;2022-10-23T11:29:12;3.77;;;3.57;;
10469;SDS011;5282;47.052;15.458;2022-10-23T11:31:54;2.83;;;2.73;;
10469;SDS011;5282;47.052;15.458;2022-10-23T11:34:42;3.40;;;3.30;;
10469;SDS011;5282;47.052;15.458;2022-10-23T11:37:20;3.27;;;3.07;;
10469;SDS011;5282;47.052;15.458;2022-10-23T11:39:57;3.87;;;3.67;;
10469;SDS011;5282;47.052;15.458;2022-10-23T11:42:32;3.27;;;3.17;;
10469;SDS011;5282;47.052;15.458;2022-10-23T11:45:24;3.70;;;3.50;;
10469;SDS011;5282;47.052;15.458;2022-10-23T11:47:57;4.70;;;4.50;;
10469;SDS011;5282;47.052;15.458;2022-10-23T11:50:31;3.40;;;3.13;;
10469;SDS011;5282;47.052;15.458;2022-10-23T11:53:05;2.77;;;2.67;;
10469;SDS011;5282;47.052;15.458;2022-10-23T11:55:58;2.93;;;2.83;;
10469;SDS011;5282;47.052;15.458;2022-10-23T11:58:27;3.03;;;2.83;;
10469;SDS011;5282;47.052;15.458;2022-10-23T12:01:14;3.43;;;3.23;;
10469;SDS011;5282;47.052;15.458;2022-10-23T12:03:49;3.30;;;3.10;;
10469;SDS011;5282;47.052;15.458;2022-10-23T12:06:21;3.07;;;2.97;;
10469;SDS011;5282;47.052;15.458;2022-10-23T12:08:53;2.90;;;2.80;;
10469;SDS011;5282;47.052;15.458;2022-10-23T12:11:26;2.80;;;2.70;;
10469;SDS011;5282;47.052;15.458;2022-10-23T12:14:06;3.43;;;2.80;;
10469;SDS011;5282;47.052;15.458;2022-10-23T12:16:51;2.47;;;2.30;;
10469;SDS011;5282;47.052;15.458;2022-10-23T12:19:19;1.90;;;1.90;;
10469;SDS011;5282;47.052;15.458;2022-10-23T12:21:49;1.80;;;1.70;;
10469;SDS011;5282;47.052;15.458;2022-10-23T12:24:27;1.80;;;1.70;;
10469;SDS011;5282;47.052;15.458;2022-10-23T12:27:11;1.80;;;1.70;;
10469;SDS011;5282;47.052;15.458;2022-10-23T12:32:41;2.03;;;1.80;;
10469;SDS011;5282;47.052;15.458;2022-10-23T12:35:41;2.13;;;2.00;;
10469;SDS011;5282;47.052;15.458;2022-10-23T12:38:20;2.03;;;1.70;;
10469;SDS011;5282;47.052;15.458;2022-10-23T12:40:51;1.90;;;1.80;;
10469;SDS011;5282;47.052;15.458;2022-10-23T12:43:24;1.67;;;1.67;;
10469;SDS011;5282;47.052;15.458;2022-10-23T12:45:57;2.17;;;2.07;;
10469;SDS011;5282;47.052;15.458;2022-10-23T12:48:28;1.87;;;1.80;;
10469;SDS011;5282;47.052;15.458;2022-10-23T12:50:55;1.40;;;1.40;;
10469;SDS011;5282;47.052;15.458;2022-10-23T12:53:24;1.70;;;1.70;;
10469;SDS011;5282;47.052;15.458;2022-10-23T12:55:55;1.83;;;1.73;;
10469;SDS011;5282;47.052;15.458;2022-10-23T12:58:23;4.20;;;1.70;;
10469;SDS011;5282;47.052;15.458;2022-10-23T13:00:54;1.90;;;1.80;;
10469;SDS011;5282;47.052;15.458;2022-10-23T13:03:23;1.67;;;1.57;;
10469;SDS011;5282;47.052;15.458;2022-10-23T13:05:54;1.70;;;1.60;;
10469;SDS011;5282;47.052;15.458;2022-10-23T13:08:25;1.73;;;1.63;;
10469;SDS011;5282;47.052;15.458;2022-10-23T13:10:59;1.57;;;1.57;;
10469;SDS011;5282;47.052;15.458;2022-10-23T13:13:26;1.50;;;1.50;;
10469;SDS011;5282;47.052;15.458;2022-10-23T13:15:53;2.00;;;1.80;;
10469;SDS011;5282;47.052;15.458;2022-10-23T13:18:20;1.53;;;1.53;;
10469;SDS011;5282;47.052;15.458;2022-10-23T13:20:55;1.50;;;1.50;;
10469;SDS011;5282;47.052;15.458;2022-10-23T13:23:26;3.30;;;1.70;;
10469;SDS011;5282;47.052;15.458;2022-10-23T13:25:57;1.60;;;1.50;;
10469;SDS011;5282;47.052;15.458;2022-10-23T13:28:27;1.60;;;1.60;;
10469;SDS011;5282;47.052;15.458;2022-10-23T13:31:04;1.60;;;1.60;;
10469;SDS011;5282;47.052;15.458;2022-10-23T13:33:34;1.50;;;1.50;;
10469;SDS011;5282;47.052;15.458;2022-10-23T13:36:03;1.53;;;1.53;;
10469;SDS011;5282;47.052;15.458;2022-10-23T13:38:33;1.90;;;1.80;;
10469;SDS011;5282;47.052;15.458;2022-10-23T13:41:04;2.10;;;1.90;;
10469;SDS011;5282;47.052;15.458;2022-10-23T13:43:36;1.93;;;1.83;;
10469;SDS011;5282;47.052;15.458;2022-10-23T13:46:04;1.90;;;1.80;;
10469;SDS011;5282;47.052;15.458;2022-10-23T13:48:31;2.33;;;1.87;;
10469;SDS011;5282;47.052;15.458;2022-10-23T13:51:00;1.70;;;1.70;;
10469;SDS011;5282;47.052;15.458;2022-10-23T13:53:36;1.90;;;1.80;;
10469;SDS011;5282;47.052;15.458;2022-10-23T13:56:05;2.50;;;2.00;;
10469;SDS011;5282;47.052;15.458;2022-10-23T13:58:35;2.20;;;2.20;;
10469;SDS011;5282;47.052;15.458;2022-10-23T14:01:02;3.33;;;3.20;;
10469;SDS011;5282;47.052;15.458;2022-10-23T14:03:29;2.13;;;2.00;;
10469;SDS011;5282;47.052;15.458;2022-10-23T14:05:56;2.17;;;2.13;;
10469;SDS011;5282;47.052;15.458;2022-10-23T14:08:25;2.20;;;2.10;;
10469;SDS011;5282;47.052;15.458;2022-10-23T14:10:52;2.07;;;1.97;;
10469;SDS011;5282;47.052;15.458;2022-10-23T14:13:21;2.20;;;2.10;;
10469;SDS011;5282;47.052;15.458;2022-10-23T14:15:51;2.13;;;2.03;;
10469;SDS011;5282;47.052;15.458;2022-10-23T14:18:20;3.00;;;2.00;;
10469;SDS011;5282;47.052;15.458;2022-10-23T14:20:48;2.00;;;1.90;;
10469;SDS011;5282;47.052;15.458;2022-10-23T14:23:15;2.60;;;2.40;;
10469;SDS011;5282;47.052;15.458;2022-10-23T14:25:42;2.23;;;2.03;;
10469;SDS011;5282;47.052;15.458;2022-10-23T14:28:09;2.10;;;2.00;;
10469;SDS011;5282;47.052;15.458;2022-10-23T14:30:38;2.47;;;2.23;;
10469;SDS011;5282;47.052;15.458;2022-10-23T14:33:05;2.67;;;2.40;;
10469;SDS011;5282;47.052;15.458;2022-10-23T14:35:31;2.50;;;2.30;;
10469;SDS011;5282;47.052;15.458;2022-10-23T14:37:59;3.63;;;2.90;;
10469;SDS011;5282;47.052;15.458;2022-10-23T14:40:26;2.30;;;2.20;;
10469;SDS011;5282;47.052;15.458;2022-10-23T14:42:55;3.63;;;2.43;;
10469;SDS011;5282;47.052;15.458;2022-10-23T14:45:23;2.50;;;2.40;;
10469;SDS011;5282;47.052;15.458;2022-10-23T14:47:52;2.70;;;2.60;;
10469;SDS011;5282;47.052;15.458;2022-10-23T14:50:19;2.50;;;2.37;;
10469;SDS011;5282;47.052;15.458;2022-10-23T14:52:47;2.70;;;2.50;;
10469;SDS011;5282;47.052;15.458;2022-10-23T14:55:14;2.47;;;2.37;;
10469;SDS011;5282;47.052;15.458;2022-10-23T14:57:41;2.60;;;2.50;;
10469;SDS011;5282;47.052;15.458;2022-10-23T15:00:09;2.90;;;2.20;;
10469;SDS011;5282;47.052;15.458;2022-10-23T15:02:37;2.40;;;2.30;;
10469;SDS011;5282;47.052;15.458;2022-10-23T15:05:08;2.43;;;2.27;;
10469;SDS011;5282;47.052;15.458;2022-10-23T15:07:35;2.83;;;2.73;;